createdAt,value
2022-09-16T00:01:50.105Z,0.50
2022-09-16T00:04:20.625Z,0.50
2022-09-16T00:06:50.404Z,0.80
2022-09-16T00:09:20.215Z,0.95
2022-09-16T00:11:50.091Z,0.77
2022-09-16T00:14:19.594Z,1.43
2022-09-16T00:16:49.785Z,0.70
2022-09-16T00:19:19.619Z,0.70
2022-09-16T00:21:50.196Z,0.83
2022-09-16T00:24:19.940Z,0.57
2022-09-16T00:26:49.818Z,0.43
2022-09-16T00:29:19.301Z,0.77
2022-09-16T00:31:49.219Z,0.53
2022-09-16T00:34:19.094Z,0.77
2022-09-16T00:36:48.902Z,0.60
2022-09-16T00:39:18.644Z,0.60
2022-09-16T00:41:48.630Z,0.50
2022-09-16T00:44:56.126Z,1.10
2022-09-16T00:47:30.351Z,0.57
2022-09-16T00:50:03.565Z,0.50
2022-09-16T00:52:34.502Z,0.90
2022-09-16T00:55:07.432Z,0.70
2022-09-16T00:57:38.800Z,0.70
2022-09-16T01:00:11.265Z,0.50
2022-09-16T01:02:44.107Z,0.90
2022-09-16T01:05:16.928Z,0.53
2022-09-16T01:07:49.701Z,0.75
2022-09-16T01:10:22.613Z,0.70
2022-09-16T01:12:58.286Z,0.50
2022-09-16T01:15:53.165Z,0.63
2022-09-16T01:18:28.738Z,0.97
2022-09-16T01:21:08.154Z,0.75
2022-09-16T01:23:43.762Z,0.47
2022-09-16T01:26:48.066Z,0.40
2022-09-16T01:29:41.517Z,0.60
2022-09-16T01:32:14.293Z,0.57
2022-09-16T01:35:08.417Z,0.77
2022-09-16T01:37:59.362Z,0.50
2022-09-16T01:40:48.645Z,0.50
2022-09-16T01:43:39.374Z,0.37
2022-09-16T01:46:25.646Z,0.40
2022-09-16T01:49:01.142Z,0.50
2022-09-16T01:51:39.720Z,0.60
2022-09-16T01:54:15.361Z,0.47
2022-09-16T01:56:56.803Z,0.50
2022-09-16T01:59:41.619Z,0.50
2022-09-16T02:02:23.492Z,0.38
2022-09-16T02:04:56.238Z,0.57
2022-09-16T02:07:34.906Z,0.43
2022-09-16T02:10:13.578Z,0.60
2022-09-16T02:12:46.220Z,0.80
2022-09-16T02:15:20.236Z,0.50
2022-09-16T02:17:56.056Z,0.60
2022-09-16T02:20:28.903Z,0.70
2022-09-16T02:23:12.691Z,0.80
2022-09-16T02:25:45.173Z,0.33
2022-09-16T02:28:30.257Z,0.37
2022-09-16T02:31:03.380Z,0.77
2022-09-16T02:33:39.206Z,0.60
2022-09-16T02:36:12.090Z,0.53
2022-09-16T02:38:48.929Z,0.60
2022-09-16T02:41:18.614Z,0.30
2022-09-16T02:43:48.410Z,0.30
2022-09-16T02:46:37.469Z,0.35
2022-09-16T02:49:31.081Z,0.30
2022-09-16T02:52:28.209Z,0.80
2022-09-16T02:55:13.005Z,0.50
2022-09-16T02:57:43.342Z,1.13
2022-09-16T03:00:13.482Z,0.23
2022-09-16T03:02:43.535Z,0.30
2022-09-16T03:05:13.205Z,0.67
2022-09-16T03:07:44.107Z,0.20
2022-09-16T03:10:15.222Z,0.40
2022-09-16T03:12:49.551Z,0.57
2022-09-16T03:15:34.726Z,0.20
2022-09-16T03:18:12.991Z,0.30
2022-09-16T03:21:09.756Z,0.20
2022-09-16T03:24:03.662Z,0.80
2022-09-16T03:26:39.424Z,0.30
2022-09-16T03:29:24.104Z,0.40
2022-09-16T03:32:02.513Z,0.60
2022-09-16T03:34:38.200Z,0.30
2022-09-16T03:37:11.725Z,0.30
2022-09-16T03:39:42.355Z,0.30
2022-09-16T03:42:14.339Z,0.50
2022-09-16T03:44:44.135Z,0.90
2022-09-16T03:47:13.727Z,0.70
2022-09-16T03:49:43.523Z,0.90
2022-09-16T03:52:13.033Z,0.30
2022-09-16T03:54:44.790Z,0.50
2022-09-16T03:57:14.500Z,0.47
2022-09-16T03:59:44.380Z,0.63
2022-09-16T04:02:16.201Z,0.50
2022-09-16T04:04:46.253Z,0.60
2022-09-16T04:07:16.521Z,0.63
2022-09-16T04:09:46.095Z,0.60
2022-09-16T04:12:16.041Z,0.57
2022-09-16T04:14:45.955Z,0.40
2022-09-16T04:17:15.507Z,0.50
2022-09-16T04:19:47.218Z,0.50
2022-09-16T04:22:17.519Z,0.50
2022-09-16T04:24:47.620Z,0.25
2022-09-16T04:27:17.415Z,0.33
2022-09-16T04:29:47.227Z,0.47
2022-09-16T04:32:17.059Z,0.10
2022-09-16T04:34:47.228Z,0.30
2022-09-16T04:37:16.735Z,0.37
2022-09-16T04:39:47.043Z,0.20
2022-09-16T04:42:16.908Z,0.20
2022-09-16T04:44:46.453Z,0.30
2022-09-16T04:47:15.983Z,0.30
2022-09-16T04:49:45.778Z,0.33
2022-09-16T04:52:15.470Z,0.40
2022-09-16T04:54:45.257Z,0.53
2022-09-16T04:57:14.884Z,0.83
2022-09-16T04:59:44.869Z,0.87
2022-09-16T05:02:14.403Z,0.47
2022-09-16T05:04:44.234Z,1.20
2022-09-16T05:07:14.121Z,0.23
2022-09-16T05:09:44.202Z,0.95
2022-09-16T05:12:14.100Z,0.70
2022-09-16T05:14:43.900Z,0.80
2022-09-16T05:17:27.626Z,0.60
2022-09-16T05:19:45.067Z,0.50
2022-09-16T05:22:15.000Z,0.60
2022-09-16T05:24:44.791Z,0.73
2022-09-16T05:27:15.275Z,1.00
2022-09-16T05:29:45.345Z,0.65
2022-09-16T05:32:15.241Z,0.80
2022-09-16T05:34:45.036Z,0.67
2022-09-16T05:37:14.891Z,0.80
2022-09-16T05:39:44.742Z,0.80
2022-09-16T05:42:14.566Z,0.70
2022-09-16T05:44:45.135Z,1.27
2022-09-16T05:47:14.764Z,0.60
2022-09-16T05:49:44.575Z,0.73
2022-09-16T05:52:14.356Z,0.40
2022-09-16T05:54:44.152Z,0.40
2022-09-16T05:57:14.521Z,0.60
2022-09-16T05:59:44.020Z,1.03
2022-09-16T06:02:13.610Z,0.70
2022-09-16T06:04:43.497Z,0.73
2022-09-16T06:07:13.024Z,1.07
2022-09-16T06:09:42.900Z,1.07
2022-09-16T06:12:12.758Z,0.80
2022-09-16T06:14:42.569Z,0.87
2022-09-16T06:17:13.247Z,0.60
2022-09-16T06:19:43.192Z,0.80
2022-09-16T06:22:13.032Z,0.80
2022-09-16T06:24:42.836Z,0.80
2022-09-16T06:27:12.655Z,0.50
2022-09-16T06:29:42.495Z,1.00
2022-09-16T06:32:12.306Z,1.60
2022-09-16T06:34:43.069Z,0.67
2022-09-16T06:37:14.442Z,0.75
2022-09-16T06:39:44.818Z,0.60
2022-09-16T06:42:14.627Z,1.33
2022-09-16T06:44:44.434Z,0.97
2022-09-16T06:47:14.297Z,0.80
2022-09-16T06:49:44.476Z,0.67
2022-09-16T06:52:14.218Z,0.77
2022-09-16T06:54:44.037Z,0.90
2022-09-16T06:57:13.665Z,0.80
2022-09-16T06:59:43.480Z,0.40
2022-09-16T07:02:13.331Z,0.60
2022-09-16T07:04:43.289Z,1.23
2022-09-16T07:07:13.829Z,0.55
2022-09-16T07:09:43.339Z,0.60
2022-09-16T07:12:19.387Z,0.70
2022-09-16T07:14:47.525Z,0.70
2022-09-16T07:17:17.319Z,0.78
2022-09-16T07:19:48.703Z,0.80
2022-09-16T07:22:18.332Z,0.60
2022-09-16T07:24:48.263Z,0.60
2022-09-16T07:27:20.789Z,0.70
2022-09-16T07:29:50.681Z,0.63
2022-09-16T07:32:20.243Z,0.60
2022-09-16T07:34:50.123Z,0.80
2022-09-16T07:37:20.065Z,0.53
2022-09-16T07:39:50.530Z,0.90
2022-09-16T07:42:20.348Z,0.57
2022-09-16T07:44:51.793Z,0.43
2022-09-16T07:47:22.347Z,0.70
2022-09-16T07:49:54.930Z,0.53
2022-09-16T07:52:27.367Z,0.50
2022-09-16T07:54:57.476Z,0.90
2022-09-16T07:57:27.627Z,0.35
2022-09-16T07:59:58.015Z,0.63
2022-09-16T08:02:27.991Z,0.30
2022-09-16T08:04:57.868Z,0.70
2022-09-16T08:07:27.665Z,0.67
2022-09-16T08:09:57.839Z,0.40
2022-09-16T08:12:29.463Z,0.50
2022-09-16T08:15:00.088Z,0.23
2022-09-16T08:17:33.363Z,0.93
2022-09-16T08:20:01.988Z,0.70
2022-09-16T08:22:32.047Z,0.30
2022-09-16T08:25:02.593Z,0.50
2022-09-16T08:27:32.156Z,0.53
2022-09-16T08:30:01.999Z,0.43
2022-09-16T08:32:31.911Z,0.70
2022-09-16T08:35:02.027Z,0.30
2022-09-16T08:37:31.811Z,0.20
2022-09-16T08:40:01.839Z,0.50
2022-09-16T08:43:07.361Z,0.35
2022-09-16T08:45:45.962Z,0.30
2022-09-16T08:48:36.865Z,0.33
2022-09-16T08:51:10.312Z,0.25
2022-09-16T08:53:46.480Z,0.20
2022-09-16T08:56:19.305Z,0.20
2022-09-16T08:58:55.194Z,0.30
2022-09-16T09:01:44.955Z,0.30
2022-09-16T09:04:15.221Z,0.23
2022-09-16T09:07:04.541Z,0.27
2022-09-16T09:09:49.225Z,0.30
2022-09-16T09:12:38.255Z,0.10
2022-09-16T09:15:28.411Z,0.20
2022-09-16T09:18:15.986Z,0.17
2022-09-16T09:20:50.347Z,0.23
2022-09-16T09:23:35.197Z,0.30
2022-09-16T09:26:10.033Z,0.60
2022-09-16T09:28:46.128Z,0.47
2022-09-16T09:31:39.794Z,0.30
2022-09-16T09:34:24.321Z,0.40
2022-09-16T09:37:18.534Z,0.60
2022-09-16T09:40:00.032Z,0.30
2022-09-16T09:42:38.940Z,0.20
2022-09-16T09:45:24.310Z,0.30
2022-09-16T09:48:05.835Z,0.30
2022-09-16T09:50:38.711Z,0.17
2022-09-16T09:53:23.697Z,0.30
2022-09-16T09:56:02.437Z,0.30
2022-09-16T09:58:38.351Z,0.13
2022-09-16T10:01:08.072Z,0.57
2022-09-16T10:03:40.282Z,0.30
2022-09-16T10:06:13.146Z,0.70
2022-09-16T10:08:48.869Z,0.20
2022-09-16T10:11:24.534Z,0.30
2022-09-16T10:13:58.038Z,0.20
2022-09-16T10:16:34.081Z,0.10
2022-09-16T10:19:06.774Z,0.20
2022-09-16T10:21:42.460Z,0.20
2022-09-16T10:24:21.129Z,0.37
2022-09-16T10:26:50.959Z,0.53
2022-09-16T10:29:21.160Z,0.25
2022-09-16T10:31:51.428Z,0.30
2022-09-16T10:34:31.265Z,0.50
2022-09-16T10:37:03.815Z,0.37
2022-09-16T10:39:34.767Z,0.10
2022-09-16T10:42:06.795Z,0.27
2022-09-16T10:44:39.758Z,0.20
2022-09-16T10:47:12.338Z,0.10
2022-09-16T10:49:51.508Z,0.20
2022-09-16T10:52:30.083Z,0.23
2022-09-16T10:55:04.091Z,0.10
2022-09-16T10:57:36.479Z,0.15
2022-09-16T11:00:10.630Z,0.40
2022-09-16T11:02:49.475Z,0.20
2022-09-16T11:05:38.755Z,0.20
2022-09-16T11:08:13.971Z,0.30
2022-09-16T11:10:47.224Z,0.28
2022-09-16T11:13:36.884Z,0.30
2022-09-16T11:16:32.627Z,0.17
2022-09-16T11:19:08.101Z,0.40
2022-09-16T11:21:43.736Z,0.30
2022-09-16T11:24:40.240Z,0.27
2022-09-16T11:27:32.547Z,0.20
2022-09-16T11:30:17.484Z,0.50
2022-09-16T11:33:20.565Z,0.43
2022-09-16T11:36:20.697Z,0.17
2022-09-16T11:39:16.087Z,0.10
2022-09-16T11:42:06.822Z,0.33
2022-09-16T11:44:51.213Z,0.10
2022-09-16T11:47:35.940Z,0.17
2022-09-16T11:50:22.649Z,0.30
2022-09-16T11:53:05.209Z,0.50
2022-09-16T11:55:40.897Z,0.10
2022-09-16T11:58:25.067Z,0.20
2022-09-16T12:00:58.034Z,0.17
2022-09-16T12:03:34.015Z,0.03
2022-09-16T12:06:11.347Z,0.10
2022-09-16T12:08:47.068Z,0.10
2022-09-16T12:11:27.147Z,0.40
2022-09-16T12:14:05.858Z,0.10
2022-09-16T12:16:37.581Z,0.10
2022-09-16T12:19:25.256Z,0.10
2022-09-16T12:22:09.487Z,0.20
2022-09-16T12:24:45.106Z,0.07
2022-09-16T12:27:30.210Z,0.20
2022-09-16T12:30:25.356Z,0.17
2022-09-16T12:33:10.521Z,0.20
2022-09-16T12:35:46.250Z,0.50
2022-09-16T12:38:21.403Z,0.00
2022-09-16T12:41:09.429Z,0.10
2022-09-16T12:44:17.070Z,0.10
2022-09-16T12:46:42.422Z,0.00
2022-09-16T12:49:29.414Z,0.10
2022-09-16T12:52:14.509Z,0.17
2022-09-16T12:55:17.634Z,0.43
2022-09-16T12:58:14.837Z,0.10
2022-09-16T13:01:21.511Z,0.20
2022-09-16T13:03:54.493Z,0.10
2022-09-16T13:06:27.250Z,0.33
2022-09-16T13:08:58.332Z,0.23
2022-09-16T13:14:01.015Z,0.10
2022-09-16T13:16:36.823Z,0.10
2022-09-16T13:19:29.666Z,0.20
2022-09-16T13:22:20.642Z,0.10
2022-09-16T13:24:53.694Z,0.30
2022-09-16T13:27:35.790Z,0.10
2022-09-16T13:30:12.929Z,0.10
2022-09-16T13:32:46.039Z,0.10
2022-09-16T13:35:42.370Z,0.00
2022-09-16T13:38:21.386Z,0.00
2022-09-16T13:41:02.285Z,0.00
2022-09-16T13:43:35.177Z,0.00
2022-09-16T13:46:18.268Z,0.10
2022-09-16T13:48:51.151Z,0.00
2022-09-16T13:51:23.071Z,0.00
2022-09-16T13:53:54.589Z,0.00
2022-09-16T13:56:55.963Z,0.00
2022-09-16T14:02:21.627Z,0.00
2022-09-16T14:04:54.972Z,0.10
2022-09-16T14:07:27.608Z,0.10
2022-09-16T14:10:06.074Z,0.00
2022-09-16T14:12:47.890Z,0.05
2022-09-16T14:15:19.668Z,0.10
2022-09-16T14:17:52.640Z,0.27
2022-09-16T14:20:25.129Z,0.03
2022-09-16T14:23:07.268Z,0.30
2022-09-16T14:25:39.081Z,0.40
2022-09-16T14:28:10.851Z,0.20
2022-09-16T14:30:55.744Z,0.10
2022-09-16T14:33:34.537Z,0.10
2022-09-16T14:36:07.439Z,0.20
2022-09-16T14:39:01.385Z,0.30
2022-09-16T14:41:39.918Z,0.10
2022-09-16T14:44:19.766Z,0.00
2022-09-16T14:46:56.842Z,0.20
2022-09-16T14:49:24.678Z,0.10
2022-09-16T14:51:59.584Z,0.10
2022-09-16T14:54:31.894Z,0.20
2022-09-16T14:57:10.498Z,0.10
2022-09-16T14:59:42.599Z,0.00
2022-09-16T15:02:33.733Z,0.00
2022-09-16T15:05:27.770Z,0.10
2022-09-16T15:08:14.002Z,0.20
2022-09-16T15:10:52.017Z,0.00
2022-09-16T15:13:15.757Z,0.20
2022-09-16T15:15:48.660Z,0.10
2022-09-16T15:18:38.304Z,0.10
2022-09-16T15:21:16.969Z,0.13
2022-09-16T15:23:50.807Z,0.20
2022-09-16T15:26:28.187Z,0.10
2022-09-16T15:29:06.676Z,0.10
2022-09-16T15:31:40.728Z,0.10
2022-09-16T15:34:22.823Z,0.10
2022-09-16T15:36:59.275Z,0.10
2022-09-16T15:39:34.738Z,0.10
2022-09-16T15:42:16.482Z,0.30
2022-09-16T15:47:22.907Z,0.15
2022-09-16T15:50:14.851Z,0.00
2022-09-16T15:53:00.106Z,0.07
2022-09-16T15:55:53.337Z,0.10
2022-09-16T15:58:37.428Z,0.40
2022-09-16T16:01:33.335Z,0.10
2022-09-16T16:04:07.673Z,0.20
2022-09-16T16:06:48.445Z,0.10
2022-09-16T16:09:33.009Z,0.20
2022-09-16T16:12:11.344Z,0.10
2022-09-16T16:14:42.291Z,0.07
2022-09-16T16:17:18.922Z,0.10
2022-09-16T16:19:51.121Z,0.10
2022-09-16T16:22:21.218Z,0.20
2022-09-16T16:24:50.782Z,0.13
2022-09-16T16:27:20.710Z,0.28
2022-09-16T16:29:50.538Z,0.10
2022-09-16T16:32:20.331Z,0.60
2022-09-16T16:34:51.718Z,0.17
2022-09-16T16:37:44.962Z,0.10
2022-09-16T16:39:53.657Z,0.10
2022-09-16T16:42:23.780Z,0.00
2022-09-16T16:44:54.676Z,0.30
2022-09-16T16:47:24.549Z,0.20
2022-09-16T16:49:54.348Z,0.00
2022-09-16T16:52:24.162Z,0.15
2022-09-16T16:54:56.966Z,0.10
2022-09-16T16:57:27.088Z,0.10
2022-09-16T16:59:57.830Z,0.13
2022-09-16T17:02:27.790Z,0.20
2022-09-16T17:04:59.216Z,0.40
2022-09-16T17:07:29.799Z,0.30
2022-09-16T17:10:01.545Z,0.10
2022-09-16T17:12:31.632Z,0.20
2022-09-16T17:15:01.429Z,0.30
2022-09-16T17:17:31.958Z,0.13
2022-09-16T17:20:04.166Z,0.35
2022-09-16T17:22:34.050Z,0.30
2022-09-16T17:25:04.122Z,0.27
2022-09-16T17:27:33.932Z,0.33
2022-09-16T17:30:03.874Z,0.80
2022-09-16T17:32:33.687Z,0.30
2022-09-16T17:35:03.811Z,0.40
2022-09-16T17:37:33.601Z,0.30
2022-09-16T17:40:04.180Z,0.20
2022-09-16T17:42:35.652Z,0.63
2022-09-16T17:45:07.580Z,0.50
2022-09-16T17:47:38.170Z,0.10
2022-09-16T17:50:08.625Z,0.30
2022-09-16T17:52:38.888Z,0.35
2022-09-16T17:55:09.882Z,0.10
2022-09-16T17:57:39.717Z,0.50
2022-09-16T18:00:10.343Z,0.27
2022-09-16T18:02:43.294Z,0.30
2022-09-16T18:05:13.112Z,0.37
2022-09-16T18:07:46.747Z,0.40
2022-09-16T18:10:16.743Z,0.77
2022-09-16T18:12:46.717Z,0.30
2022-09-16T18:15:16.385Z,0.40
2022-09-16T18:17:47.324Z,0.60
2022-09-16T18:20:17.577Z,0.45
2022-09-16T18:22:48.695Z,0.30
2022-09-16T18:25:18.470Z,0.20
2022-09-16T18:27:49.723Z,0.23
2022-09-16T18:30:19.524Z,0.30
2022-09-16T18:32:50.493Z,0.20
2022-09-16T18:35:20.503Z,0.55
2022-09-16T18:37:50.520Z,0.60
2022-09-16T18:40:20.401Z,0.40
2022-09-16T18:42:53.935Z,0.63
2022-09-16T18:45:23.588Z,0.70
2022-09-16T18:47:55.230Z,0.35
2022-09-16T18:50:26.122Z,0.60
2022-09-16T18:52:56.414Z,0.80
2022-09-16T18:55:26.811Z,0.80
2022-09-16T18:57:57.913Z,0.60
2022-09-16T19:00:27.961Z,0.90
2022-09-16T19:02:57.883Z,0.80
2022-09-16T19:05:28.599Z,1.00
2022-09-16T19:07:58.311Z,1.60
2022-09-16T19:10:28.272Z,1.73
2022-09-16T19:12:58.245Z,0.80
2022-09-16T19:15:29.163Z,0.70
2022-09-16T19:17:58.963Z,1.00
2022-09-16T19:20:30.302Z,0.63
2022-09-16T19:23:05.880Z,0.82
2022-09-16T19:25:38.907Z,0.73
2022-09-16T19:28:09.134Z,0.57
2022-09-16T19:30:39.073Z,1.07
2022-09-16T19:33:09.033Z,0.67
2022-09-16T19:35:38.868Z,0.50
2022-09-16T19:38:08.780Z,0.63
2022-09-16T19:40:38.690Z,0.80
2022-09-16T19:43:08.528Z,1.03
2022-09-16T19:45:44.597Z,0.80
2022-09-16T19:48:14.885Z,0.40
2022-09-16T19:50:48.015Z,0.53
2022-09-16T19:53:17.618Z,0.60
2022-09-16T19:55:47.487Z,0.40
2022-09-16T19:58:17.026Z,0.60
2022-09-16T20:00:55.732Z,0.50
2022-09-16T20:03:19.429Z,0.50
2022-09-16T20:05:49.559Z,0.50
2022-09-16T20:08:19.096Z,0.73
2022-09-16T20:10:48.904Z,0.70
2022-09-16T20:13:24.378Z,0.90
2022-09-16T20:15:57.498Z,0.50
2022-09-16T20:18:31.889Z,0.30
2022-09-16T20:21:04.386Z,0.70
2022-09-16T20:23:35.642Z,0.47
2022-09-16T20:26:09.433Z,0.24
2022-09-16T20:28:43.453Z,0.60
2022-09-16T20:31:15.149Z,0.30
2022-09-16T20:33:45.443Z,0.50
2022-09-16T20:36:17.977Z,0.53
2022-09-16T20:38:49.262Z,1.33
2022-09-16T20:43:50.407Z,0.57
2022-09-16T20:46:22.247Z,0.90
2022-09-16T20:48:54.559Z,0.60
2022-09-16T20:51:27.432Z,0.80
2022-09-16T20:54:04.965Z,0.57
2022-09-16T20:56:38.682Z,0.60
2022-09-16T20:59:06.676Z,1.20
2022-09-16T21:01:37.914Z,0.80
2022-09-16T21:04:13.806Z,1.05
2022-09-16T21:06:44.231Z,0.63
2022-09-16T21:09:16.075Z,0.80
2022-09-16T21:11:46.100Z,0.70
2022-09-16T21:14:18.235Z,0.68
2022-09-16T21:16:49.341Z,0.80
2022-09-16T21:19:20.226Z,0.30
2022-09-16T21:21:50.014Z,0.40
2022-09-16T21:24:22.284Z,0.53
2022-09-16T21:26:53.891Z,0.70
2022-09-16T21:29:24.628Z,0.37
2022-09-16T21:31:56.247Z,0.35
2022-09-16T21:34:26.209Z,0.60
2022-09-16T21:36:57.763Z,0.37
2022-09-16T21:39:28.118Z,0.30
2022-09-16T21:41:57.880Z,0.30
2022-09-16T21:44:27.818Z,0.43
2022-09-16T21:46:57.836Z,0.40
2022-09-16T21:49:29.559Z,0.50
2022-09-16T21:52:00.024Z,0.25
2022-09-16T21:54:31.267Z,0.20
2022-09-16T21:57:01.115Z,0.40
2022-09-16T21:59:30.942Z,0.53
2022-09-16T22:02:03.744Z,0.30
2022-09-16T22:04:32.200Z,0.50
2022-09-16T22:07:02.977Z,0.57
2022-09-16T22:09:32.490Z,0.43
2022-09-16T22:12:02.867Z,0.50
2022-09-16T22:14:33.223Z,0.40
2022-09-16T22:17:02.994Z,0.30
2022-09-16T22:19:32.807Z,0.73
2022-09-16T22:22:02.580Z,0.60
2022-09-16T22:24:32.383Z,1.00
2022-09-16T22:27:02.181Z,0.40
2022-09-16T22:29:31.993Z,0.50
2022-09-16T22:32:02.028Z,0.80
2022-09-16T22:34:31.860Z,0.47
2022-09-16T22:37:01.748Z,0.60
2022-09-16T22:39:31.543Z,0.70
2022-09-16T22:42:01.372Z,0.80
2022-09-16T22:44:31.637Z,0.57
2022-09-16T22:47:01.492Z,0.40
2022-09-16T22:49:31.472Z,0.50
2022-09-16T22:52:01.240Z,0.47
2022-09-16T22:54:31.187Z,0.40
2022-09-16T22:57:01.278Z,0.50
2022-09-16T22:59:31.066Z,0.50
2022-09-16T23:02:00.960Z,0.63
2022-09-16T23:04:30.948Z,0.50
2022-09-16T23:07:00.818Z,0.27
2022-09-16T23:09:30.614Z,0.73
2022-09-16T23:12:00.705Z,0.90
2022-09-16T23:14:30.503Z,0.93
2022-09-16T23:17:01.271Z,0.60
2022-09-16T23:19:30.755Z,0.73
2022-09-16T23:22:00.714Z,0.80
2022-09-16T23:24:30.968Z,0.60
2022-09-16T23:27:00.796Z,0.60
2022-09-16T23:29:30.916Z,0.40
2022-09-16T23:32:02.350Z,0.30
2022-09-16T23:34:32.210Z,0.80
2022-09-16T23:37:02.063Z,0.40
2022-09-16T23:39:31.848Z,0.30
2022-09-16T23:42:02.205Z,0.53
2022-09-16T23:44:32.083Z,0.37
2022-09-16T23:47:02.533Z,0.53
2022-09-16T23:49:32.700Z,0.40
2022-09-16T23:52:02.588Z,0.53
2022-09-16T23:54:32.547Z,0.30
2022-09-16T23:57:02.409Z,0.40
2022-09-16T23:59:32.268Z,0.60
